createdAt,value
2024-01-18T00:00:52.593Z,14.27
2024-01-18T00:03:20.913Z,15.07
2024-01-18T00:05:49.117Z,15.77
2024-01-18T00:08:17.467Z,15.50
2024-01-18T00:10:45.491Z,15.20
2024-01-18T00:13:13.590Z,15.87
2024-01-18T00:15:41.818Z,15.83
2024-01-18T00:18:12.069Z,16.03
2024-01-18T00:20:40.481Z,17.37
2024-01-18T00:23:08.850Z,16.97
2024-01-18T00:25:36.952Z,17.13
2024-01-18T00:28:05.209Z,16.63
2024-01-18T00:30:33.485Z,15.93
2024-01-18T00:33:01.870Z,16.63
2024-01-18T00:35:30.102Z,15.63
2024-01-18T00:37:58.230Z,17.30
2024-01-18T00:40:26.341Z,17.23
2024-01-18T00:42:54.446Z,16.80
2024-01-18T00:45:22.629Z,17.53
2024-01-18T00:47:50.902Z,16.20
2024-01-18T00:50:18.990Z,19.13
2024-01-18T00:52:47.325Z,18.13
2024-01-18T00:55:15.478Z,18.70
2024-01-18T00:57:43.561Z,18.20
2024-01-18T01:00:12.244Z,19.13
2024-01-18T01:02:40.527Z,18.33
2024-01-18T01:05:09.041Z,18.30
2024-01-18T01:07:37.097Z,17.00
2024-01-18T01:10:05.446Z,17.47
2024-01-18T01:12:33.574Z,18.83
2024-01-18T01:15:01.977Z,17.97
2024-01-18T01:17:30.165Z,16.87
2024-01-18T01:19:59.264Z,17.60
2024-01-18T01:22:28.181Z,18.40
2024-01-18T01:24:56.247Z,18.57
2024-01-18T01:27:24.318Z,18.53
2024-01-18T01:29:52.601Z,18.70
2024-01-18T01:32:20.719Z,18.00
2024-01-18T01:34:48.912Z,17.90
2024-01-18T01:37:17.350Z,17.83
2024-01-18T01:39:45.432Z,16.37
2024-01-18T01:42:13.578Z,17.20
2024-01-18T01:44:41.727Z,16.73
2024-01-18T01:47:09.856Z,16.63
2024-01-18T01:49:38.072Z,17.93
2024-01-18T01:52:06.378Z,17.70
2024-01-18T01:54:34.631Z,17.07
2024-01-18T01:57:04.544Z,18.03
2024-01-18T01:59:33.237Z,17.77
2024-01-18T02:02:01.158Z,18.63
2024-01-18T02:04:30.505Z,18.47
2024-01-18T02:06:59.238Z,18.57
2024-01-18T02:09:28.173Z,18.10
2024-01-18T02:11:56.039Z,18.07
2024-01-18T02:14:24.916Z,16.93
2024-01-18T02:16:52.785Z,15.60
2024-01-18T02:19:20.899Z,16.27
2024-01-18T02:21:49.057Z,16.97
2024-01-18T02:24:46.644Z,17.80
2024-01-18T02:27:14.740Z,17.80
2024-01-18T02:29:42.787Z,16.80
2024-01-18T02:32:10.913Z,18.20
2024-01-18T02:34:41.365Z,19.37
2024-01-18T02:37:09.624Z,18.07
2024-01-18T02:39:37.976Z,16.80
2024-01-18T02:42:06.483Z,15.53
2024-01-18T02:44:34.729Z,15.97
2024-01-18T02:47:02.811Z,16.63
2024-01-18T02:49:30.973Z,14.53
2024-01-18T02:51:59.076Z,13.17
2024-01-18T02:54:27.243Z,13.50
2024-01-18T02:56:55.430Z,13.00
2024-01-18T02:59:23.574Z,11.93
2024-01-18T03:01:51.665Z,13.00
2024-01-18T03:04:20.897Z,12.33
2024-01-18T03:06:49.177Z,11.03
2024-01-18T03:09:17.636Z,11.40
2024-01-18T03:11:45.700Z,11.53
2024-01-18T03:14:13.825Z,10.27
2024-01-18T03:16:45.123Z,11.23
2024-01-18T03:19:13.985Z,11.40
2024-01-18T03:21:42.345Z,10.80
2024-01-18T03:24:10.661Z,9.13
2024-01-18T03:26:38.868Z,10.73
2024-01-18T03:29:06.981Z,11.17
2024-01-18T03:31:35.084Z,10.30
2024-01-18T03:34:03.364Z,10.83
2024-01-18T03:36:31.538Z,10.03
2024-01-18T03:39:00.340Z,9.73
2024-01-18T03:41:28.310Z,10.47
2024-01-18T03:43:56.387Z,10.37
2024-01-18T03:46:24.490Z,9.93
2024-01-18T03:48:53.037Z,10.27
2024-01-18T03:51:21.381Z,9.77
2024-01-18T03:53:49.476Z,10.83
2024-01-18T03:56:17.586Z,10.53
2024-01-18T03:58:45.665Z,10.87
2024-01-18T04:01:14.607Z,11.17
2024-01-18T04:03:49.726Z,11.13
2024-01-18T04:06:18.139Z,11.90
2024-01-18T04:08:46.501Z,11.27
2024-01-18T04:11:15.707Z,12.47
2024-01-18T04:13:43.821Z,11.73
2024-01-18T04:16:11.980Z,11.47
2024-01-18T04:18:40.016Z,12.07
2024-01-18T04:21:08.542Z,13.60
2024-01-18T04:23:36.695Z,11.73
2024-01-18T04:26:05.074Z,12.77
2024-01-18T04:28:33.226Z,11.77
2024-01-18T04:31:01.371Z,11.43
2024-01-18T04:33:29.562Z,13.10
2024-01-18T04:35:57.710Z,14.10
2024-01-18T04:38:25.842Z,13.47
2024-01-18T04:40:53.966Z,13.07
2024-01-18T04:43:22.234Z,14.17
2024-01-18T04:45:50.302Z,13.87
2024-01-18T04:48:18.677Z,15.03
2024-01-18T04:50:46.804Z,14.83
2024-01-18T04:53:15.421Z,14.50
2024-01-18T04:55:44.448Z,14.50
2024-01-18T04:58:12.704Z,13.83
2024-01-18T05:00:40.869Z,12.07
2024-01-18T05:03:09.128Z,13.50
2024-01-18T05:05:39.099Z,13.40
2024-01-18T05:08:08.621Z,14.20
2024-01-18T05:10:36.742Z,14.17
2024-01-18T05:13:04.981Z,13.10
2024-01-18T05:15:33.155Z,12.40
2024-01-18T05:18:02.219Z,12.90
2024-01-18T05:20:30.679Z,11.57
2024-01-18T05:22:58.856Z,11.87
2024-01-18T05:25:27.126Z,12.67
2024-01-18T05:27:55.329Z,13.40
2024-01-18T05:30:24.683Z,13.90
2024-01-18T05:32:52.986Z,13.00
2024-01-18T05:35:21.026Z,14.27
2024-01-18T05:37:49.089Z,13.30
2024-01-18T05:40:17.319Z,13.73
2024-01-18T05:42:45.463Z,12.87
2024-01-18T05:45:13.727Z,13.53
2024-01-18T05:47:41.693Z,14.87
2024-01-18T05:50:10.594Z,14.50
2024-01-18T05:52:38.687Z,14.83
2024-01-18T05:55:06.957Z,14.10
2024-01-18T05:57:38.718Z,14.13
2024-01-18T06:00:07.941Z,13.10
2024-01-18T06:02:36.076Z,12.93
2024-01-18T06:05:04.269Z,13.17
2024-01-18T06:07:34.142Z,14.60
2024-01-18T06:10:02.375Z,13.70
2024-01-18T06:12:30.566Z,14.73
2024-01-18T06:14:59.356Z,15.90
2024-01-18T06:17:27.436Z,14.03
2024-01-18T06:19:55.513Z,13.87
2024-01-18T06:22:23.669Z,13.27
2024-01-18T06:24:51.694Z,13.90
2024-01-18T06:27:19.677Z,13.40
2024-01-18T06:29:48.950Z,14.73
2024-01-18T06:32:17.119Z,13.03
2024-01-18T06:34:45.205Z,13.90
2024-01-18T06:37:13.195Z,15.23
2024-01-18T06:39:41.536Z,13.50
2024-01-18T06:42:10.072Z,13.87
2024-01-18T06:44:38.029Z,14.93
2024-01-18T06:47:06.781Z,14.70
2024-01-18T06:49:35.428Z,14.67
2024-01-18T06:52:03.502Z,13.83
2024-01-18T06:54:31.805Z,14.63
2024-01-18T06:56:59.753Z,20.37
2024-01-18T06:59:27.684Z,17.73
2024-01-18T07:01:55.880Z,15.77
2024-01-18T07:04:24.009Z,15.63
2024-01-18T07:06:51.992Z,14.90
2024-01-18T07:09:20.193Z,14.57
2024-01-18T07:11:48.127Z,14.83
2024-01-18T07:14:16.703Z,14.50
2024-01-18T07:16:44.833Z,15.30
2024-01-18T07:19:12.901Z,15.07
2024-01-18T07:21:41.288Z,15.20
2024-01-18T07:24:09.436Z,17.23
2024-01-18T07:26:37.580Z,16.23
2024-01-18T07:29:05.532Z,16.33
2024-01-18T07:31:33.574Z,15.63
2024-01-18T07:34:01.939Z,15.23
2024-01-18T07:36:30.261Z,16.00
2024-01-18T07:38:58.408Z,15.97
2024-01-18T07:41:26.648Z,16.60
2024-01-18T07:43:54.841Z,17.30
2024-01-18T07:46:22.938Z,16.20
2024-01-18T07:48:51.198Z,17.13
2024-01-18T07:51:19.331Z,16.50
2024-01-18T07:53:47.315Z,16.27
2024-01-18T07:56:15.416Z,16.43
2024-01-18T07:58:44.681Z,15.70
2024-01-18T08:01:12.884Z,26.77
2024-01-18T08:03:40.939Z,23.20
2024-01-18T08:06:09.002Z,26.83
2024-01-18T08:08:37.714Z,19.93
2024-01-18T08:11:05.792Z,19.37
2024-01-18T08:13:33.847Z,17.37
2024-01-18T08:16:02.709Z,15.30
2024-01-18T08:18:31.405Z,14.93
2024-01-18T08:20:59.625Z,15.83
2024-01-18T08:23:27.575Z,16.03
2024-01-18T08:25:56.120Z,18.23
2024-01-18T08:28:24.361Z,15.27
2024-01-18T08:30:52.885Z,15.97
2024-01-18T08:33:21.646Z,16.47
2024-01-18T08:35:49.737Z,16.50
2024-01-18T08:38:17.628Z,14.70
2024-01-18T08:40:45.758Z,15.53
2024-01-18T08:43:13.886Z,15.73
2024-01-18T08:45:42.979Z,15.67
2024-01-18T08:48:11.944Z,15.00
2024-01-18T08:50:40.009Z,15.53
2024-01-18T08:53:08.227Z,15.57
2024-01-18T08:55:39.496Z,16.53
2024-01-18T08:58:08.469Z,15.55
2024-01-18T09:00:36.578Z,15.60
2024-01-18T09:03:05.084Z,17.70
2024-01-18T09:05:34.258Z,17.00
2024-01-18T09:08:06.292Z,16.27
2024-01-18T09:10:34.862Z,15.03
2024-01-18T09:13:02.986Z,16.33
2024-01-18T09:15:31.183Z,15.87
2024-01-18T09:17:59.589Z,16.47
2024-01-18T09:20:27.585Z,16.07
2024-01-18T09:23:05.256Z,17.77
2024-01-18T09:25:41.177Z,17.47
2024-01-18T09:28:09.249Z,17.87
2024-01-18T09:30:40.490Z,16.60
2024-01-18T09:33:10.799Z,17.43
2024-01-18T09:35:42.264Z,17.07
2024-01-18T09:38:11.869Z,18.25
2024-01-18T09:40:40.783Z,18.17
2024-01-18T09:43:09.697Z,18.53
2024-01-18T09:45:41.308Z,18.30
2024-01-18T09:48:10.039Z,19.05
2024-01-18T09:50:46.015Z,19.83
2024-01-18T09:53:14.588Z,18.70
2024-01-18T09:55:43.710Z,18.30
2024-01-18T09:58:15.546Z,18.17
2024-01-18T10:00:46.081Z,18.90
2024-01-18T10:03:14.366Z,18.33
2024-01-18T10:05:44.920Z,18.57
2024-01-18T10:08:13.947Z,17.80
2024-01-18T10:10:43.443Z,19.27
2024-01-18T10:13:17.531Z,19.23
2024-01-18T10:15:45.588Z,19.33
2024-01-18T10:18:13.964Z,19.23
2024-01-18T10:20:42.473Z,19.73
2024-01-18T10:23:11.717Z,20.77
2024-01-18T10:25:40.868Z,20.67
2024-01-18T10:28:08.825Z,20.40
2024-01-18T10:30:38.952Z,21.33
2024-01-18T10:33:07.237Z,20.60
2024-01-18T10:35:35.703Z,20.43
2024-01-18T10:38:05.054Z,20.93
2024-01-18T10:40:35.229Z,20.60
2024-01-18T10:43:03.753Z,21.77
2024-01-18T10:45:32.605Z,21.13
2024-01-18T10:48:00.776Z,21.77
2024-01-18T10:50:29.494Z,22.97
2024-01-18T10:52:58.202Z,21.63
2024-01-18T10:55:26.264Z,22.10
2024-01-18T10:57:54.887Z,23.80
2024-01-18T11:00:22.945Z,20.60
2024-01-18T11:02:51.514Z,21.63
2024-01-18T11:05:21.960Z,20.27
2024-01-18T11:07:51.030Z,18.63
2024-01-18T11:10:19.205Z,18.67
2024-01-18T11:12:50.748Z,18.47
2024-01-18T11:15:19.241Z,19.77
2024-01-18T11:17:48.018Z,18.60
2024-01-18T11:20:16.522Z,21.30
2024-01-18T11:22:44.761Z,19.80
2024-01-18T11:25:14.053Z,18.13
2024-01-18T11:27:42.871Z,19.83
2024-01-18T11:30:29.980Z,19.30
2024-01-18T11:32:58.459Z,17.90
2024-01-18T11:35:26.545Z,14.93
2024-01-18T11:38:14.620Z,13.97
2024-01-18T11:40:42.587Z,11.57
2024-01-18T11:43:10.632Z,11.70
2024-01-18T11:45:39.875Z,7.30
2024-01-18T11:48:08.081Z,5.57
2024-01-18T11:50:36.114Z,5.67
2024-01-18T11:53:05.351Z,6.97
2024-01-18T11:55:34.923Z,7.87
2024-01-18T11:58:04.386Z,8.47
2024-01-18T12:00:33.178Z,8.73
2024-01-18T12:03:04.595Z,8.37
2024-01-18T12:05:32.566Z,13.48
2024-01-18T12:08:01.489Z,12.83
2024-01-18T12:10:30.976Z,11.77
2024-01-18T12:13:00.259Z,13.53
2024-01-18T12:15:32.286Z,11.40
2024-01-18T12:20:28.955Z,13.27
2024-01-18T12:22:56.911Z,12.83
2024-01-18T12:25:24.810Z,13.23
2024-01-18T12:27:52.817Z,13.70
2024-01-18T12:30:21.029Z,14.37
2024-01-18T12:32:50.598Z,13.47
2024-01-18T12:35:18.761Z,14.30
2024-01-18T12:37:46.735Z,14.63
2024-01-18T12:40:14.919Z,13.10
2024-01-18T12:42:43.214Z,14.03
2024-01-18T12:45:11.327Z,14.50
2024-01-18T12:47:39.419Z,14.37
2024-01-18T12:50:11.398Z,14.37
2024-01-18T12:52:39.662Z,15.40
2024-01-18T12:55:08.166Z,15.40
2024-01-18T12:57:38.899Z,14.20
2024-01-18T13:00:11.199Z,15.87
2024-01-18T13:02:41.111Z,15.97
2024-01-18T13:05:14.373Z,15.10
2024-01-18T13:07:42.924Z,14.80
2024-01-18T13:10:14.126Z,14.23
2024-01-18T13:12:42.180Z,14.75
2024-01-18T13:15:10.387Z,15.37
2024-01-18T13:17:40.744Z,14.83
2024-01-18T13:20:12.249Z,14.27
2024-01-18T13:22:40.245Z,14.57
2024-01-18T13:25:09.185Z,16.10
2024-01-18T13:27:37.468Z,16.27
2024-01-18T13:30:06.444Z,15.70
2024-01-18T13:32:34.503Z,16.73
2024-01-18T13:35:02.752Z,14.93
2024-01-18T13:37:31.546Z,15.67
2024-01-18T13:39:59.851Z,16.47
2024-01-18T13:42:27.830Z,16.37
2024-01-18T13:44:55.877Z,15.63
2024-01-18T13:47:23.882Z,17.17
2024-01-18T13:49:52.061Z,17.17
2024-01-18T13:52:22.237Z,16.43
2024-01-18T13:54:50.318Z,16.47
2024-01-18T13:57:18.550Z,18.03
2024-01-18T13:59:46.676Z,18.70
2024-01-18T14:02:14.852Z,18.53
2024-01-18T14:04:42.974Z,19.83
2024-01-18T14:07:11.263Z,21.47
2024-01-18T14:09:41.475Z,21.10
2024-01-18T14:12:09.794Z,22.30
2024-01-18T14:14:37.861Z,21.77
2024-01-18T14:17:06.051Z,19.40
2024-01-18T14:19:34.499Z,21.57
2024-01-18T14:22:03.260Z,21.40
2024-01-18T14:24:32.026Z,21.33
2024-01-18T14:27:00.209Z,21.87
2024-01-18T14:29:30.283Z,21.93
2024-01-18T14:31:58.614Z,22.77
2024-01-18T14:34:29.124Z,22.60
2024-01-18T14:36:58.335Z,23.65
2024-01-18T14:39:26.409Z,22.57
2024-01-18T14:41:54.478Z,23.67
2024-01-18T14:44:22.566Z,22.90
2024-01-18T14:46:50.804Z,23.37
2024-01-18T14:49:20.140Z,24.67
2024-01-18T14:51:48.531Z,23.13
2024-01-18T14:54:16.788Z,23.13
2024-01-18T14:56:46.911Z,22.67
2024-01-18T14:59:15.988Z,22.17
2024-01-18T15:01:44.724Z,22.50
2024-01-18T15:04:14.839Z,22.27
2024-01-18T15:06:43.346Z,22.00
2024-01-18T15:09:11.166Z,22.77
2024-01-18T15:11:39.348Z,21.60
2024-01-18T15:14:07.814Z,21.30
2024-01-18T15:16:35.953Z,21.97
2024-01-18T15:19:10.124Z,23.73
2024-01-18T15:21:45.931Z,24.37
2024-01-18T15:24:14.656Z,24.60
2024-01-18T15:26:43.999Z,25.40
2024-01-18T15:29:12.486Z,24.47
2024-01-18T15:31:40.708Z,26.43
2024-01-18T15:34:09.492Z,26.03
2024-01-18T15:36:40.915Z,26.23
2024-01-18T15:39:10.019Z,26.65
2024-01-18T15:41:41.410Z,27.60
2024-01-18T15:44:09.440Z,26.05
2024-01-18T15:46:39.591Z,28.57
2024-01-18T15:49:08.933Z,27.83
2024-01-18T15:51:37.190Z,28.47
2024-01-18T15:54:05.432Z,28.40
2024-01-18T15:56:33.527Z,30.23
2024-01-18T15:59:03.256Z,28.87
2024-01-18T16:01:31.528Z,27.93
2024-01-18T16:03:59.822Z,29.27
2024-01-18T16:06:28.043Z,28.20
2024-01-18T16:08:56.293Z,28.17
2024-01-18T16:11:24.391Z,25.17
2024-01-18T16:13:52.702Z,26.37
2024-01-18T16:16:20.715Z,28.43
2024-01-18T16:18:48.946Z,26.13
2024-01-18T16:21:17.350Z,26.53
2024-01-18T16:23:45.398Z,29.07
2024-01-18T16:26:13.471Z,26.23
2024-01-18T16:28:41.543Z,28.27
2024-01-18T16:31:09.485Z,27.87
2024-01-18T16:33:37.633Z,27.80
2024-01-18T16:36:06.039Z,28.73
2024-01-18T16:38:34.185Z,29.03
2024-01-18T16:41:04.280Z,27.93
2024-01-18T16:43:32.399Z,29.43
2024-01-18T16:46:01.536Z,28.50
2024-01-18T16:48:31.078Z,30.30
2024-01-18T16:50:59.660Z,28.13
2024-01-18T16:53:27.799Z,27.33
2024-01-18T16:55:55.918Z,26.47
2024-01-18T16:58:24.488Z,27.63
2024-01-18T17:00:52.587Z,26.47
2024-01-18T17:03:20.761Z,29.03
2024-01-18T17:05:49.124Z,28.77
2024-01-18T17:08:17.448Z,27.10
2024-01-18T17:10:45.604Z,28.07
2024-01-18T17:13:13.683Z,27.53
2024-01-18T17:15:41.767Z,25.83
2024-01-18T17:18:11.083Z,27.93
2024-01-18T17:20:40.049Z,28.40
2024-01-18T17:23:08.448Z,27.70
2024-01-18T17:25:36.659Z,28.37
2024-01-18T17:28:06.073Z,26.37
2024-01-18T17:30:34.179Z,25.57
2024-01-18T17:33:02.566Z,27.10
2024-01-18T17:35:30.810Z,25.70
2024-01-18T17:37:59.659Z,24.90
2024-01-18T17:40:28.004Z,25.53
2024-01-18T17:42:56.195Z,25.50
2024-01-18T17:45:27.113Z,25.03
2024-01-18T17:47:55.533Z,25.60
2024-01-18T17:50:23.999Z,24.83
2024-01-18T17:52:52.189Z,26.27
2024-01-18T17:55:20.493Z,26.60
2024-01-18T17:57:48.622Z,27.17
2024-01-18T18:00:20.382Z,26.80
2024-01-18T18:02:51.606Z,27.07
2024-01-18T18:05:19.924Z,28.10
2024-01-18T18:07:50.275Z,28.87
2024-01-18T18:10:18.463Z,24.73
2024-01-18T18:12:46.544Z,27.13
2024-01-18T18:15:14.737Z,26.53
2024-01-18T18:17:43.349Z,25.43
2024-01-18T18:20:13.459Z,26.90
2024-01-18T18:22:41.537Z,26.60
2024-01-18T18:25:09.754Z,25.97
2024-01-18T18:27:38.363Z,25.00
2024-01-18T18:30:11.834Z,24.57
2024-01-18T18:32:42.255Z,28.00
2024-01-18T18:35:10.487Z,27.13
2024-01-18T18:37:38.606Z,25.73
2024-01-18T18:40:07.244Z,25.77
2024-01-18T18:42:35.369Z,25.30
2024-01-18T18:45:03.516Z,24.57
2024-01-18T18:47:32.003Z,24.77
2024-01-18T18:50:00.488Z,23.27
2024-01-18T18:52:32.094Z,24.03
2024-01-18T18:55:01.060Z,24.20
2024-01-18T18:57:29.238Z,23.03
2024-01-18T18:59:57.387Z,22.40
2024-01-18T19:02:25.610Z,22.33
2024-01-18T19:04:53.803Z,22.47
2024-01-18T19:07:21.635Z,22.50
2024-01-18T19:09:49.396Z,22.53
2024-01-18T19:12:17.674Z,21.70
2024-01-18T19:14:45.483Z,24.20
2024-01-18T19:17:13.534Z,24.43
2024-01-18T19:19:41.414Z,24.23
2024-01-18T19:22:09.317Z,23.40
2024-01-18T19:24:37.176Z,24.10
2024-01-18T19:27:06.601Z,23.97
2024-01-18T19:29:34.751Z,22.97
2024-01-18T19:32:02.506Z,23.87
2024-01-18T19:34:30.645Z,25.40
2024-01-18T19:36:58.581Z,24.30
2024-01-18T19:39:30.092Z,23.10
2024-01-18T19:42:00.237Z,22.40
2024-01-18T19:44:28.093Z,21.30
2024-01-18T19:46:56.414Z,21.87
2024-01-18T19:49:25.376Z,20.73
2024-01-18T19:51:53.550Z,22.57
2024-01-18T19:54:21.697Z,22.90
2024-01-18T19:56:50.363Z,20.93
2024-01-18T19:59:19.692Z,23.73
2024-01-18T20:01:48.742Z,23.33
2024-01-18T20:04:17.205Z,21.40
2024-01-18T20:06:45.387Z,22.60
2024-01-18T20:09:13.339Z,22.87
2024-01-18T20:11:41.695Z,20.03
2024-01-18T20:14:10.028Z,21.33
2024-01-18T20:16:39.093Z,21.43
2024-01-18T20:19:06.893Z,23.17
2024-01-18T20:21:34.771Z,24.17
2024-01-18T20:24:02.707Z,27.07
2024-01-18T20:26:30.479Z,25.13
2024-01-18T20:28:58.583Z,27.30
2024-01-18T20:31:26.478Z,33.03
2024-01-18T20:33:54.754Z,32.17
2024-01-18T20:36:23.239Z,35.00
2024-01-18T20:38:51.228Z,32.87
2024-01-18T20:41:19.485Z,32.40
2024-01-18T20:43:47.553Z,35.00
2024-01-18T20:46:15.272Z,25.57
2024-01-18T20:48:43.122Z,26.73
2024-01-18T20:51:11.255Z,25.93
2024-01-18T20:53:41.179Z,24.00
2024-01-18T20:56:09.145Z,25.23
2024-01-18T20:58:37.353Z,27.90
2024-01-18T21:01:05.217Z,26.13
2024-01-18T21:03:33.104Z,27.60
2024-01-18T21:06:00.940Z,31.57
2024-01-18T21:08:28.925Z,29.30
2024-01-18T21:10:56.767Z,27.17
2024-01-18T21:13:24.551Z,29.10
2024-01-18T21:15:52.672Z,31.13
2024-01-18T21:18:20.608Z,31.67
2024-01-18T21:20:48.606Z,29.57
2024-01-18T21:23:16.657Z,31.57
2024-01-18T21:25:44.641Z,28.57
2024-01-18T21:28:12.596Z,29.43
2024-01-18T21:30:40.378Z,29.87
2024-01-18T21:33:11.945Z,26.83
2024-01-18T21:35:40.465Z,27.90
2024-01-18T21:38:08.533Z,25.30
2024-01-18T21:40:36.291Z,27.30
2024-01-18T21:43:04.169Z,25.63
2024-01-18T21:45:32.046Z,24.57
2024-01-18T21:48:00.381Z,27.27
2024-01-18T21:50:28.488Z,25.50
2024-01-18T21:52:56.417Z,25.10
2024-01-18T21:55:24.826Z,24.13
2024-01-18T21:57:52.885Z,24.90
2024-01-18T22:00:21.170Z,24.53
2024-01-18T22:02:50.434Z,24.40
2024-01-18T22:05:18.750Z,23.50
2024-01-18T22:07:46.925Z,23.97
2024-01-18T22:10:15.190Z,22.87
2024-01-18T22:12:43.389Z,24.30
2024-01-18T22:15:11.580Z,24.53
2024-01-18T22:17:40.099Z,24.30
2024-01-18T22:20:08.649Z,24.13
2024-01-18T22:22:36.900Z,23.03
2024-01-18T22:25:05.033Z,22.77
2024-01-18T22:27:33.265Z,22.53
2024-01-18T22:30:01.402Z,23.47
2024-01-18T22:32:30.180Z,22.10
2024-01-18T22:34:58.483Z,21.90
2024-01-18T22:37:26.768Z,23.03
2024-01-18T22:39:54.732Z,23.47
2024-01-18T22:42:22.995Z,22.50
2024-01-18T22:44:51.144Z,23.00
2024-01-18T22:47:19.538Z,23.53
2024-01-18T22:49:47.799Z,24.07
2024-01-18T22:52:15.960Z,24.80
2024-01-18T22:54:44.220Z,24.23
2024-01-18T22:57:12.360Z,23.20
2024-01-18T22:59:40.458Z,24.93
2024-01-18T23:02:08.605Z,25.33
2024-01-18T23:04:36.744Z,21.80
2024-01-18T23:07:04.752Z,24.00
2024-01-18T23:09:32.844Z,21.97
2024-01-18T23:12:00.923Z,24.03
2024-01-18T23:14:29.109Z,21.53
2024-01-18T23:16:57.272Z,23.27
2024-01-18T23:19:25.457Z,20.50
2024-01-18T23:21:53.578Z,20.50
2024-01-18T23:24:21.657Z,20.73
2024-01-18T23:26:49.811Z,19.67
2024-01-18T23:29:18.025Z,21.57
2024-01-18T23:31:46.882Z,21.07
2024-01-18T23:34:15.209Z,22.70
2024-01-18T23:36:44.522Z,21.50
2024-01-18T23:39:12.712Z,19.53
2024-01-18T23:41:41.886Z,19.57
2024-01-18T23:44:11.101Z,20.43
2024-01-18T23:46:42.158Z,19.97
2024-01-18T23:49:10.834Z,19.80
2024-01-18T23:51:39.082Z,19.40
2024-01-18T23:54:08.242Z,20.90
2024-01-18T23:56:36.468Z,19.70
2024-01-18T23:59:04.668Z,18.60
